Clarendon Springs, Vermont
Current Conditions -  °F | °C
As of 9:35 PM on Wednesday 17 Dec 2014 (Local Time) from KRUT Reporting Station
Overcast Overcast  
Wind Chill: 36°   Ceiling: 1500
Heat Index: 36°   Visibility: 10mi
Dew Point: 32°   Wind: 3mph
Humidity: 87%   Direction: 260°W
Pressure: 29.77"   Gusts: NA
Location:  43.5746°N, 73.0567°W
Report Text: KRUT 180235Z 26003KT 10SM BKN015 OVC022 02/00 A2977 RMK AO1
Loading
Personal Weather Stations






























Interactive Weather Map New forecast layout! Learn more

10-Day Weather Forecast

Advertisements
Track Severe Weather on mobile